createdAt,value
2022-09-10T00:03:08.625Z,0
2022-09-10T00:06:33.750Z,0
2022-09-10T00:09:58.946Z,0
2022-09-10T00:13:24.157Z,0
2022-09-10T00:16:49.315Z,0
2022-09-10T00:20:14.555Z,0
2022-09-10T00:23:39.753Z,0
2022-09-10T00:27:04.889Z,0
2022-09-10T00:30:30.086Z,0
2022-09-10T00:33:55.249Z,0
2022-09-10T00:37:20.476Z,0
2022-09-10T00:40:45.697Z,0
2022-09-10T00:44:11.222Z,0
2022-09-10T00:47:36.415Z,0
2022-09-10T00:51:01.625Z,0
2022-09-10T00:54:26.836Z,0
2022-09-10T00:57:52.045Z,0
2022-09-10T01:01:17.299Z,0
2022-09-10T01:04:42.458Z,0
2022-09-10T01:08:07.619Z,0
2022-09-10T01:11:34.719Z,0
2022-09-10T01:14:58.019Z,0
2022-09-10T01:18:23.199Z,0
2022-09-10T01:21:48.399Z,0
2022-09-10T01:25:13.581Z,0
2022-09-10T01:28:38.934Z,0
2022-09-10T01:32:03.958Z,0
2022-09-10T01:35:29.151Z,0
2022-09-10T01:38:54.382Z,0
2022-09-10T01:42:19.545Z,0
2022-09-10T01:45:44.777Z,0
2022-09-10T01:49:09.929Z,0
2022-09-10T01:52:35.104Z,0
2022-09-10T01:56:00.307Z,0
2022-09-10T01:59:25.473Z,0
2022-09-10T02:02:50.682Z,0
2022-09-10T02:06:15.877Z,0
2022-09-10T02:09:41.074Z,0
2022-09-10T02:13:06.322Z,0
2022-09-10T02:16:31.483Z,0
2022-09-10T02:19:56.632Z,0
2022-09-10T02:23:21.798Z,0
2022-09-10T02:26:46.981Z,0
2022-09-10T02:30:12.193Z,0
2022-09-10T02:33:37.351Z,0
2022-09-10T02:37:02.540Z,0
2022-09-10T02:40:27.720Z,0
2022-09-10T02:43:52.897Z,0
2022-09-10T02:47:18.104Z,0
2022-09-10T02:50:43.245Z,0
2022-09-10T02:54:08.454Z,0
2022-09-10T02:57:33.635Z,0
2022-09-10T03:00:58.845Z,0
2022-09-10T03:04:24.004Z,0
2022-09-10T03:07:49.181Z,0
2022-09-10T03:11:14.355Z,0
2022-09-10T03:14:39.553Z,0
2022-09-10T03:18:04.733Z,0
2022-09-10T03:21:29.942Z,0
2022-09-10T03:24:55.105Z,0
2022-09-10T03:28:20.261Z,0
2022-09-10T03:31:45.501Z,0
2022-09-10T03:35:10.619Z,0
2022-09-10T03:38:35.864Z,0
2022-09-10T03:42:00.989Z,0
2022-09-10T03:45:26.200Z,0
2022-09-10T03:48:55.181Z,0
2022-09-10T03:52:16.563Z,0
2022-09-10T03:55:41.773Z,0
2022-09-10T03:59:06.948Z,0
2022-09-10T04:02:32.123Z,0
2022-09-10T04:05:57.280Z,0
2022-09-10T04:09:22.462Z,0
2022-09-10T04:12:47.667Z,0
2022-09-10T04:16:12.857Z,0
2022-09-10T04:19:38.003Z,0
2022-09-10T04:23:03.178Z,0
2022-09-10T04:26:28.335Z,0
2022-09-10T04:29:53.517Z,0
2022-09-10T04:33:18.666Z,0
2022-09-10T04:36:43.851Z,0
2022-09-10T04:40:09.067Z,0
2022-09-10T04:43:34.208Z,0
2022-09-10T04:46:59.433Z,0
2022-09-10T04:50:24.615Z,0
2022-09-10T04:53:49.838Z,0
2022-09-10T04:57:15.067Z,0
2022-09-10T05:00:40.329Z,0
2022-09-10T05:04:05.510Z,0
2022-09-10T05:07:30.683Z,0
2022-09-10T05:10:55.852Z,0
2022-09-10T05:14:21.093Z,0
2022-09-10T05:17:46.303Z,0
2022-09-10T05:21:11.568Z,0
2022-09-10T05:24:36.656Z,0
2022-09-10T05:28:01.832Z,0
2022-09-10T05:31:27.025Z,0
2022-09-10T05:34:52.186Z,0
2022-09-10T05:38:17.423Z,0
2022-09-10T05:41:42.588Z,0
2022-09-10T05:45:07.791Z,0
2022-09-10T05:48:32.980Z,0
2022-09-10T05:51:58.175Z,0
2022-09-10T05:55:23.389Z,0
2022-09-10T05:58:48.537Z,0
2022-09-10T06:02:13.853Z,0
2022-09-10T06:05:38.931Z,0
2022-09-10T06:09:04.129Z,0
2022-09-10T06:12:29.329Z,0
2022-09-10T06:15:54.491Z,0
2022-09-10T06:19:19.728Z,6
2022-09-10T06:22:44.907Z,0
2022-09-10T06:26:10.097Z,6
2022-09-10T06:29:35.322Z,6
2022-09-10T06:33:00.459Z,6
2022-09-10T06:36:25.660Z,6
2022-09-10T06:39:50.908Z,0
2022-09-10T06:43:16.060Z,0
2022-09-10T06:47:10.886Z,6
2022-09-10T06:50:06.430Z,0
2022-09-10T06:53:31.682Z,0
2022-09-10T06:56:56.916Z,0
2022-09-10T07:00:22.090Z,6
2022-09-10T07:03:47.318Z,6
2022-09-10T07:07:12.471Z,6
2022-09-10T07:10:37.748Z,6
2022-09-10T07:14:02.926Z,17
2022-09-10T07:17:31.726Z,17
2022-09-10T07:20:53.284Z,17
2022-09-10T07:24:18.456Z,17
2022-09-10T07:27:43.634Z,17
2022-09-10T07:31:08.898Z,23
2022-09-10T07:34:34.023Z,17
2022-09-10T07:37:59.237Z,28
2022-09-10T07:41:24.408Z,39
2022-09-10T07:44:49.595Z,45
2022-09-10T07:48:15.220Z,34
2022-09-10T07:51:40.225Z,39
2022-09-10T07:55:05.492Z,45
2022-09-10T07:58:30.663Z,45
2022-09-10T08:01:55.902Z,39
2022-09-10T08:05:21.036Z,51
2022-09-10T08:08:46.284Z,34
2022-09-10T08:12:11.530Z,34
2022-09-10T08:15:36.761Z,23
2022-09-10T08:19:01.894Z,17
2022-09-10T08:22:27.095Z,11
2022-09-10T08:25:52.307Z,23
2022-09-10T08:29:17.512Z,23
2022-09-10T08:32:42.663Z,28
2022-09-10T08:36:07.853Z,28
2022-09-10T08:39:33.084Z,23
2022-09-10T08:42:58.215Z,23
2022-09-10T08:46:23.457Z,17
2022-09-10T08:49:48.637Z,11
2022-09-10T08:53:13.882Z,17
2022-09-10T08:56:39.063Z,17
2022-09-10T09:00:04.262Z,28
2022-09-10T09:03:29.474Z,34
2022-09-10T09:06:54.651Z,39
2022-09-10T09:10:19.841Z,34
2022-09-10T09:13:45.050Z,34
2022-09-10T09:17:10.242Z,28
2022-09-10T09:20:36.025Z,34
2022-09-10T09:24:13.037Z,28
2022-09-10T09:27:26.398Z,34
2022-09-10T09:30:51.635Z,34
2022-09-10T09:34:16.797Z,23
2022-09-10T09:37:42.024Z,28
2022-09-10T09:41:07.230Z,28
2022-09-10T09:44:32.479Z,34
2022-09-10T09:47:57.632Z,28
2022-09-10T09:51:22.834Z,28
2022-09-10T09:55:12.962Z,28
2022-09-10T09:58:13.242Z,23
2022-09-10T10:01:38.503Z,34
2022-09-10T10:05:03.614Z,34
2022-09-10T10:08:28.838Z,34
2022-09-10T10:11:54.022Z,34
2022-09-10T10:15:19.182Z,51
2022-09-10T10:18:44.397Z,62
2022-09-10T10:22:09.605Z,56
2022-09-10T10:25:34.797Z,62
2022-09-10T10:29:00.034Z,62
2022-09-10T10:32:25.176Z,62
2022-09-10T10:35:50.879Z,28
2022-09-10T10:39:16.044Z,34
2022-09-10T10:42:41.204Z,34
2022-09-10T10:46:09.954Z,39
2022-09-10T10:49:31.688Z,45
2022-09-10T10:52:56.884Z,45
2022-09-10T10:56:22.097Z,51
2022-09-10T10:59:47.329Z,45
2022-09-10T11:03:12.559Z,45
2022-09-10T11:06:37.748Z,39
2022-09-10T11:10:02.940Z,34
2022-09-10T11:13:28.175Z,23
2022-09-10T11:16:57.946Z,6
2022-09-10T11:20:28.275Z,0
2022-09-10T11:23:43.792Z,0
2022-09-10T11:27:09.043Z,0
2022-09-10T11:30:34.293Z,0
2022-09-10T11:33:59.457Z,0
2022-09-10T11:37:24.637Z,6
2022-09-10T11:40:49.875Z,6
2022-09-10T11:44:15.072Z,11
2022-09-10T11:47:40.683Z,17
2022-09-10T11:51:06.688Z,17
2022-09-10T11:54:32.512Z,17
2022-09-10T11:57:57.737Z,17
2022-09-10T12:01:22.940Z,17
2022-09-10T12:04:49.872Z,23
2022-09-10T12:08:15.059Z,17
2022-09-10T12:11:40.316Z,17
2022-09-10T12:15:05.568Z,28
2022-09-10T12:18:30.746Z,62
2022-09-10T12:21:55.954Z,68
2022-09-10T12:25:21.142Z,28
2022-09-10T12:28:46.374Z,56
2022-09-10T12:32:11.523Z,45
2022-09-10T12:35:36.730Z,34
2022-09-10T12:39:01.965Z,34
2022-09-10T12:42:27.154Z,56
2022-09-10T12:45:52.456Z,45
2022-09-10T12:49:17.562Z,45
2022-09-10T12:52:42.787Z,28
2022-09-10T12:56:07.968Z,28
2022-09-10T12:59:35.827Z,39
2022-09-10T13:03:01.029Z,28
2022-09-10T13:06:26.358Z,17
2022-09-10T13:09:51.521Z,23
2022-09-10T13:13:24.712Z,23
2022-09-10T13:16:49.890Z,23
2022-09-10T13:20:15.149Z,56
2022-09-10T13:23:40.360Z,28
2022-09-10T13:27:05.476Z,23
2022-09-10T13:30:30.635Z,28
2022-09-10T13:33:55.812Z,28
2022-09-10T13:37:21.030Z,28
2022-09-10T13:40:46.223Z,28
2022-09-10T13:44:11.439Z,34
2022-09-10T13:47:36.627Z,39
2022-09-10T13:51:01.795Z,39
2022-09-10T13:54:26.982Z,34
2022-09-10T13:57:52.127Z,6
2022-09-10T14:01:17.365Z,23
2022-09-10T14:04:45.019Z,6
2022-09-10T14:08:07.644Z,6
2022-09-10T14:11:32.844Z,6
2022-09-10T14:14:57.997Z,6
2022-09-10T14:18:23.187Z,11
2022-09-10T14:21:48.371Z,17
2022-09-10T14:25:13.546Z,11
2022-09-10T14:28:38.738Z,11
2022-09-10T15:06:27.717Z,11
2022-09-10T15:09:52.859Z,23
2022-09-10T15:13:18.035Z,17
2022-09-10T15:16:43.214Z,17
2022-09-10T15:20:08.388Z,11
2022-09-10T15:23:33.583Z,6
2022-09-10T15:26:58.732Z,6
2022-09-10T15:30:23.934Z,6
2022-09-10T15:33:49.123Z,6
2022-09-10T15:37:14.302Z,6
2022-09-10T15:40:39.516Z,6
2022-09-10T15:44:04.651Z,6
2022-09-10T15:47:29.844Z,6
2022-09-10T15:50:55.050Z,6
2022-09-10T15:54:20.205Z,6
2022-09-10T15:57:45.403Z,6
2022-09-10T16:01:10.625Z,6
2022-09-10T16:04:37.239Z,6
2022-09-10T16:08:00.921Z,6
2022-09-10T16:11:26.107Z,0
2022-09-10T16:14:51.301Z,0
2022-09-10T16:18:16.459Z,0
2022-09-10T16:21:41.660Z,0
2022-09-10T16:25:06.838Z,0
2022-09-10T16:28:32.053Z,0
2022-09-10T16:31:57.204Z,0
2022-09-10T16:35:22.374Z,0
2022-09-10T16:38:47.563Z,0
2022-09-10T16:42:12.729Z,0
2022-09-10T16:45:37.934Z,0
2022-09-10T16:49:03.136Z,0
2022-09-10T16:52:28.437Z,0
2022-09-10T16:55:53.640Z,0
2022-09-10T16:59:18.816Z,0
2022-09-10T17:02:44.109Z,0
2022-09-10T17:06:09.357Z,0
2022-09-10T17:09:34.521Z,0
2022-09-10T17:12:59.693Z,0
2022-09-10T17:16:24.927Z,0
2022-09-10T17:19:50.197Z,0
2022-09-10T17:23:15.357Z,0
2022-09-10T17:26:40.510Z,0
2022-09-10T17:30:05.759Z,0
2022-09-10T17:33:31.616Z,0
2022-09-10T17:36:56.799Z,0
2022-09-10T17:40:22.003Z,0
2022-09-10T17:43:47.169Z,0
2022-09-10T17:47:12.341Z,0
2022-09-10T17:50:37.555Z,0
2022-09-10T17:54:02.806Z,0
2022-09-10T17:57:28.020Z,0
2022-09-10T18:00:53.191Z,0
2022-09-10T18:04:18.380Z,0
2022-09-10T18:07:43.589Z,0
2022-09-10T18:11:08.793Z,0
2022-09-10T18:14:34.022Z,0
2022-09-10T18:17:59.251Z,0
2022-09-10T18:21:24.537Z,0
2022-09-10T18:24:49.725Z,0
2022-09-10T18:28:14.921Z,0
2022-09-10T18:31:40.254Z,0
2022-09-10T18:35:05.369Z,0
2022-09-10T18:38:30.572Z,0
2022-09-10T18:41:55.776Z,0
2022-09-10T18:45:21.078Z,0
2022-09-10T18:48:46.587Z,0
2022-09-10T18:52:11.805Z,0
2022-09-10T18:55:37.015Z,0
2022-09-10T18:59:02.287Z,0
2022-09-10T19:02:27.784Z,0
2022-09-10T19:05:52.926Z,0
2022-09-10T19:09:18.156Z,0
2022-09-10T19:12:43.396Z,0
2022-09-10T19:16:08.638Z,0
2022-09-10T19:19:33.806Z,0
2022-09-10T19:22:59.028Z,0
2022-09-10T19:26:24.200Z,0
2022-09-10T19:29:49.438Z,0
2022-09-10T19:33:14.598Z,0
2022-09-10T19:36:39.866Z,0
2022-09-10T19:40:05.169Z,0
2022-09-10T19:43:30.256Z,0
2022-09-10T19:46:55.434Z,0
2022-09-10T19:50:23.340Z,0
2022-09-10T19:53:45.806Z,0
2022-09-10T19:57:11.028Z,0
2022-09-10T20:00:46.663Z,0
2022-09-10T20:04:01.452Z,0
2022-09-10T20:07:26.728Z,0
2022-09-10T20:10:51.966Z,0
2022-09-10T20:14:17.201Z,0
2022-09-10T20:17:42.351Z,0
2022-09-10T20:21:07.580Z,0
2022-09-10T20:24:32.806Z,0
2022-09-10T20:27:58.016Z,0
2022-09-10T20:31:23.329Z,0
2022-09-10T20:34:48.436Z,0
2022-09-10T20:38:13.659Z,0
2022-09-10T20:41:38.841Z,0
2022-09-10T20:45:04.120Z,0
2022-09-10T20:48:29.371Z,0
2022-09-10T20:51:54.570Z,0
2022-09-10T20:55:19.900Z,0
2022-09-10T20:58:45.111Z,0
2022-09-10T21:02:10.437Z,0
2022-09-10T21:05:35.602Z,0
2022-09-10T21:09:00.829Z,0
2022-09-10T21:12:26.047Z,0
2022-09-10T21:15:51.355Z,0
2022-09-10T21:19:16.493Z,0
2022-09-10T21:22:41.749Z,0
2022-09-10T21:26:06.968Z,0
2022-09-10T21:29:32.153Z,0
2022-09-10T21:32:57.334Z,0
2022-09-10T21:36:22.569Z,0
2022-09-10T21:39:47.850Z,0
2022-09-10T21:43:13.012Z,0
2022-09-10T21:46:38.293Z,0
2022-09-10T21:50:03.467Z,0
2022-09-10T21:53:28.682Z,0
2022-09-10T21:56:53.896Z,0
2022-09-10T22:00:19.099Z,0
2022-09-10T22:03:44.299Z,0
2022-09-10T22:07:09.509Z,0
2022-09-10T22:10:34.738Z,0
2022-09-10T22:13:59.967Z,0
2022-09-10T22:17:25.131Z,0
2022-09-10T22:20:50.391Z,0
2022-09-10T22:24:15.597Z,0
2022-09-10T22:27:40.794Z,0
2022-09-10T22:31:06.050Z,0
2022-09-10T22:34:31.255Z,0
2022-09-10T22:37:56.458Z,0
2022-09-10T22:41:21.661Z,0
2022-09-10T22:44:46.852Z,0
2022-09-10T22:48:12.101Z,0
2022-09-10T22:51:37.281Z,0
2022-09-10T22:55:02.537Z,0
2022-09-10T22:58:27.748Z,0
2022-09-10T23:01:53.013Z,0
2022-09-10T23:05:18.203Z,0
2022-09-10T23:08:43.342Z,0
2022-09-10T23:12:08.603Z,0
2022-09-10T23:15:33.796Z,0
2022-09-10T23:18:58.982Z,0
2022-09-10T23:22:24.242Z,0
2022-09-10T23:25:49.459Z,0
2022-09-10T23:29:14.639Z,0
2022-09-10T23:32:39.816Z,0
2022-09-10T23:36:04.989Z,0
2022-09-10T23:39:30.185Z,0
2022-09-10T23:42:55.332Z,0
2022-09-10T23:46:20.528Z,0
2022-09-10T23:49:45.631Z,0
2022-09-10T23:53:10.815Z,0
2022-09-10T23:56:36.033Z,0
